sensor_id;sensor_type;location;lat;lon;timestamp;P1;durP1;ratioP1;P2;durP2;ratioP2
13943;SDS011;7044;53.286;8.534;2023-02-15T00:01:18;13.00;;;7.23;;
13943;SDS011;7044;53.286;8.534;2023-02-15T00:03:48;13.50;;;7.83;;
13943;SDS011;7044;53.286;8.534;2023-02-15T00:06:15;10.07;;;6.03;;
13943;SDS011;7044;53.286;8.534;2023-02-15T00:08:42;11.80;;;6.80;;
13943;SDS011;7044;53.286;8.534;2023-02-15T00:11:11;11.80;;;7.23;;
13943;SDS011;7044;53.286;8.534;2023-02-15T00:13:39;13.57;;;7.77;;
13943;SDS011;7044;53.286;8.534;2023-02-15T00:16:07;13.10;;;7.70;;
13943;SDS011;7044;53.286;8.534;2023-02-15T00:18:35;11.53;;;6.87;;
13943;SDS011;7044;53.286;8.534;2023-02-15T00:21:05;12.70;;;7.50;;
13943;SDS011;7044;53.286;8.534;2023-02-15T00:23:33;13.27;;;7.77;;
13943;SDS011;7044;53.286;8.534;2023-02-15T00:26:04;14.30;;;6.73;;
13943;SDS011;7044;53.286;8.534;2023-02-15T00:28:32;11.03;;;6.87;;
13943;SDS011;7044;53.286;8.534;2023-02-15T00:31:02;12.97;;;7.57;;
13943;SDS011;7044;53.286;8.534;2023-02-15T00:33:30;13.77;;;7.37;;
13943;SDS011;7044;53.286;8.534;2023-02-15T00:35:57;13.13;;;6.67;;
13943;SDS011;7044;53.286;8.534;2023-02-15T00:38:27;12.47;;;7.37;;
13943;SDS011;7044;53.286;8.534;2023-02-15T00:40:54;11.83;;;6.97;;
13943;SDS011;7044;53.286;8.534;2023-02-15T00:43:22;15.50;;;7.80;;
13943;SDS011;7044;53.286;8.534;2023-02-15T00:45:49;15.20;;;7.67;;
13943;SDS011;7044;53.286;8.534;2023-02-15T00:48:16;13.43;;;7.23;;
13943;SDS011;7044;53.286;8.534;2023-02-15T00:50:44;13.53;;;7.13;;
13943;SDS011;7044;53.286;8.534;2023-02-15T00:53:11;12.97;;;7.43;;
13943;SDS011;7044;53.286;8.534;2023-02-15T00:55:40;14.57;;;8.03;;
13943;SDS011;7044;53.286;8.534;2023-02-15T00:58:06;19.50;;;8.43;;
13943;SDS011;7044;53.286;8.534;2023-02-15T01:00:33;14.93;;;7.83;;
13943;SDS011;7044;53.286;8.534;2023-02-15T01:03:01;23.70;;;8.93;;
13943;SDS011;7044;53.286;8.534;2023-02-15T01:05:28;17.00;;;8.70;;
13943;SDS011;7044;53.286;8.534;2023-02-15T01:07:55;33.17;;;9.40;;
13943;SDS011;7044;53.286;8.534;2023-02-15T01:10:22;31.57;;;8.40;;
13943;SDS011;7044;53.286;8.534;2023-02-15T01:12:51;28.60;;;10.13;;
13943;SDS011;7044;53.286;8.534;2023-02-15T01:15:18;17.60;;;9.97;;
13943;SDS011;7044;53.286;8.534;2023-02-15T01:17:45;20.17;;;8.97;;
13943;SDS011;7044;53.286;8.534;2023-02-15T01:20:16;20.87;;;8.93;;
13943;SDS011;7044;53.286;8.534;2023-02-15T01:22:43;16.67;;;8.27;;
13943;SDS011;7044;53.286;8.534;2023-02-15T01:25:12;16.33;;;9.10;;
13943;SDS011;7044;53.286;8.534;2023-02-15T01:27:38;21.90;;;8.47;;
13943;SDS011;7044;53.286;8.534;2023-02-15T01:30:07;37.10;;;9.40;;
13943;SDS011;7044;53.286;8.534;2023-02-15T01:32:34;27.47;;;8.40;;
13943;SDS011;7044;53.286;8.534;2023-02-15T01:35:01;25.53;;;8.30;;
13943;SDS011;7044;53.286;8.534;2023-02-15T01:37:29;21.57;;;8.47;;
13943;SDS011;7044;53.286;8.534;2023-02-15T01:39:57;13.87;;;8.07;;
13943;SDS011;7044;53.286;8.534;2023-02-15T01:42:25;13.30;;;7.80;;
13943;SDS011;7044;53.286;8.534;2023-02-15T01:44:54;13.60;;;8.03;;
13943;SDS011;7044;53.286;8.534;2023-02-15T01:47:25;11.57;;;7.23;;
13943;SDS011;7044;53.286;8.534;2023-02-15T01:50:00;13.53;;;7.37;;
13943;SDS011;7044;53.286;8.534;2023-02-15T01:52:32;10.33;;;6.33;;
13943;SDS011;7044;53.286;8.534;2023-02-15T01:55:03;12.63;;;7.33;;
13943;SDS011;7044;53.286;8.534;2023-02-15T01:57:30;12.17;;;7.90;;
13943;SDS011;7044;53.286;8.534;2023-02-15T01:59:58;13.17;;;7.93;;
13943;SDS011;7044;53.286;8.534;2023-02-15T02:02:28;13.67;;;7.73;;
13943;SDS011;7044;53.286;8.534;2023-02-15T02:04:56;12.17;;;7.47;;
13943;SDS011;7044;53.286;8.534;2023-02-15T02:07:28;13.13;;;7.57;;
13943;SDS011;7044;53.286;8.534;2023-02-15T02:09:58;10.33;;;7.37;;
13943;SDS011;7044;53.286;8.534;2023-02-15T02:12:27;13.17;;;7.77;;
13943;SDS011;7044;53.286;8.534;2023-02-15T02:14:54;14.90;;;7.67;;
13943;SDS011;7044;53.286;8.534;2023-02-15T02:17:24;14.30;;;7.10;;
13943;SDS011;7044;53.286;8.534;2023-02-15T02:22:56;11.07;;;7.23;;
13943;SDS011;7044;53.286;8.534;2023-02-15T02:35:17;13.57;;;6.57;;
13943;SDS011;7044;53.286;8.534;2023-02-15T02:37:48;13.50;;;7.00;;
13943;SDS011;7044;53.286;8.534;2023-02-15T02:40:24;17.03;;;7.63;;
13943;SDS011;7044;53.286;8.534;2023-02-15T02:42:59;14.37;;;8.83;;
13943;SDS011;7044;53.286;8.534;2023-02-15T02:45:32;25.07;;;8.63;;
13943;SDS011;7044;53.286;8.534;2023-02-15T02:48:06;32.73;;;8.23;;
13943;SDS011;7044;53.286;8.534;2023-02-15T02:50:38;23.27;;;8.23;;
13943;SDS011;7044;53.286;8.534;2023-02-15T02:53:05;44.30;;;9.23;;
13943;SDS011;7044;53.286;8.534;2023-02-15T02:55:33;36.80;;;7.70;;
13943;SDS011;7044;53.286;8.534;2023-02-15T02:58:05;41.27;;;7.43;;
13943;SDS011;7044;53.286;8.534;2023-02-15T03:00:36;56.20;;;6.53;;
13943;SDS011;7044;53.286;8.534;2023-02-15T03:03:06;46.50;;;7.13;;
13943;SDS011;7044;53.286;8.534;2023-02-15T03:05:39;55.67;;;7.47;;
13943;SDS011;7044;53.286;8.534;2023-02-15T03:08:09;108.70;;;8.37;;
13943;SDS011;7044;53.286;8.534;2023-02-15T03:10:38;55.70;;;8.17;;
13943;SDS011;7044;53.286;8.534;2023-02-15T03:13:06;92.67;;;7.90;;
13943;SDS011;7044;53.286;8.534;2023-02-15T03:15:35;73.30;;;8.27;;
13943;SDS011;7044;53.286;8.534;2023-02-15T03:18:23;78.17;;;7.97;;
13943;SDS011;7044;53.286;8.534;2023-02-15T03:20:55;96.60;;;8.50;;
13943;SDS011;7044;53.286;8.534;2023-02-15T03:23:24;128.17;;;9.23;;
13943;SDS011;7044;53.286;8.534;2023-02-15T03:25:56;67.17;;;9.13;;
13943;SDS011;7044;53.286;8.534;2023-02-15T03:28:25;63.07;;;7.47;;
13943;SDS011;7044;53.286;8.534;2023-02-15T03:30:57;46.33;;;6.33;;
13943;SDS011;7044;53.286;8.534;2023-02-15T03:33:26;62.83;;;7.47;;
13943;SDS011;7044;53.286;8.534;2023-02-15T03:35:57;63.87;;;8.17;;
13943;SDS011;7044;53.286;8.534;2023-02-15T03:38:29;59.80;;;8.07;;
13943;SDS011;7044;53.286;8.534;2023-02-15T03:41:00;31.50;;;6.97;;
13943;SDS011;7044;53.286;8.534;2023-02-15T03:43:37;45.20;;;7.27;;
13943;SDS011;7044;53.286;8.534;2023-02-15T03:46:11;46.67;;;7.27;;
13943;SDS011;7044;53.286;8.534;2023-02-15T03:48:42;31.13;;;7.50;;
13943;SDS011;7044;53.286;8.534;2023-02-15T03:51:14;45.37;;;7.80;;
13943;SDS011;7044;53.286;8.534;2023-02-15T03:54:00;89.63;;;8.77;;
13943;SDS011;7044;53.286;8.534;2023-02-15T03:56:30;91.27;;;9.43;;
13943;SDS011;7044;53.286;8.534;2023-02-15T03:58:59;47.37;;;8.70;;
13943;SDS011;7044;53.286;8.534;2023-02-15T04:01:45;54.20;;;9.23;;
13943;SDS011;7044;53.286;8.534;2023-02-15T04:04:32;36.87;;;9.13;;
13943;SDS011;7044;53.286;8.534;2023-02-15T04:07:03;35.07;;;8.73;;
13943;SDS011;7044;53.286;8.534;2023-02-15T04:09:31;44.23;;;10.17;;
13943;SDS011;7044;53.286;8.534;2023-02-15T04:12:16;47.97;;;9.07;;
13943;SDS011;7044;53.286;8.534;2023-02-15T04:14:43;34.50;;;8.93;;
13943;SDS011;7044;53.286;8.534;2023-02-15T04:17:27;18.73;;;7.90;;
13943;SDS011;7044;53.286;8.534;2023-02-15T04:19:54;27.27;;;8.60;;
13943;SDS011;7044;53.286;8.534;2023-02-15T04:22:40;20.03;;;8.20;;
13943;SDS011;7044;53.286;8.534;2023-02-15T04:25:24;14.87;;;7.03;;
13943;SDS011;7044;53.286;8.534;2023-02-15T04:27:52;11.77;;;7.17;;
13943;SDS011;7044;53.286;8.534;2023-02-15T04:30:20;18.33;;;8.40;;
13943;SDS011;7044;53.286;8.534;2023-02-15T04:32:49;14.30;;;8.27;;
13943;SDS011;7044;53.286;8.534;2023-02-15T04:35:16;20.03;;;8.10;;
13943;SDS011;7044;53.286;8.534;2023-02-15T04:37:45;13.70;;;8.97;;
13943;SDS011;7044;53.286;8.534;2023-02-15T04:40:12;18.07;;;8.30;;
13943;SDS011;7044;53.286;8.534;2023-02-15T04:42:40;12.03;;;8.77;;
13943;SDS011;7044;53.286;8.534;2023-02-15T04:45:07;12.90;;;9.37;;
13943;SDS011;7044;53.286;8.534;2023-02-15T04:47:34;20.70;;;9.37;;
13943;SDS011;7044;53.286;8.534;2023-02-15T04:50:01;21.50;;;9.00;;
13943;SDS011;7044;53.286;8.534;2023-02-15T04:52:28;35.63;;;10.13;;
13943;SDS011;7044;53.286;8.534;2023-02-15T04:54:56;35.70;;;10.53;;
13943;SDS011;7044;53.286;8.534;2023-02-15T04:57:22;45.57;;;11.87;;
13943;SDS011;7044;53.286;8.534;2023-02-15T04:59:49;59.30;;;11.63;;
13943;SDS011;7044;53.286;8.534;2023-02-15T05:02:16;53.27;;;11.43;;
13943;SDS011;7044;53.286;8.534;2023-02-15T05:04:43;40.73;;;10.27;;
13943;SDS011;7044;53.286;8.534;2023-02-15T05:07:09;46.33;;;10.87;;
13943;SDS011;7044;53.286;8.534;2023-02-15T05:09:36;22.07;;;11.00;;
13943;SDS011;7044;53.286;8.534;2023-02-15T05:12:05;21.60;;;9.37;;
13943;SDS011;7044;53.286;8.534;2023-02-15T05:14:32;49.20;;;10.67;;
13943;SDS011;7044;53.286;8.534;2023-02-15T05:16:59;20.07;;;10.40;;
13943;SDS011;7044;53.286;8.534;2023-02-15T05:19:26;15.93;;;9.37;;
13943;SDS011;7044;53.286;8.534;2023-02-15T05:21:53;38.73;;;9.47;;
13943;SDS011;7044;53.286;8.534;2023-02-15T05:24:20;32.87;;;9.10;;
13943;SDS011;7044;53.286;8.534;2023-02-15T05:27:05;16.00;;;9.33;;
13943;SDS011;7044;53.286;8.534;2023-02-15T05:29:50;17.17;;;9.23;;
13943;SDS011;7044;53.286;8.534;2023-02-15T05:32:17;24.73;;;8.13;;
13943;SDS011;7044;53.286;8.534;2023-02-15T05:34:43;12.57;;;8.47;;
13943;SDS011;7044;53.286;8.534;2023-02-15T05:37:10;18.57;;;9.03;;
13943;SDS011;7044;53.286;8.534;2023-02-15T05:39:37;19.03;;;9.00;;
13943;SDS011;7044;53.286;8.534;2023-02-15T05:42:05;28.40;;;9.13;;
13943;SDS011;7044;53.286;8.534;2023-02-15T05:44:32;17.17;;;8.30;;
13943;SDS011;7044;53.286;8.534;2023-02-15T05:46:59;28.93;;;7.97;;
13943;SDS011;7044;53.286;8.534;2023-02-15T05:49:27;21.60;;;8.90;;
13943;SDS011;7044;53.286;8.534;2023-02-15T05:51:55;12.40;;;7.93;;
13943;SDS011;7044;53.286;8.534;2023-02-15T05:54:22;10.63;;;7.70;;
13943;SDS011;7044;53.286;8.534;2023-02-15T05:56:49;10.77;;;7.87;;
13943;SDS011;7044;53.286;8.534;2023-02-15T05:59:17;11.10;;;7.90;;
13943;SDS011;7044;53.286;8.534;2023-02-15T06:01:44;13.30;;;8.43;;
13943;SDS011;7044;53.286;8.534;2023-02-15T06:04:10;10.23;;;7.40;;
13943;SDS011;7044;53.286;8.534;2023-02-15T06:06:38;12.67;;;7.50;;
13943;SDS011;7044;53.286;8.534;2023-02-15T06:09:05;12.50;;;7.93;;
13943;SDS011;7044;53.286;8.534;2023-02-15T06:11:31;12.93;;;8.43;;
13943;SDS011;7044;53.286;8.534;2023-02-15T06:13:58;14.07;;;8.63;;
13943;SDS011;7044;53.286;8.534;2023-02-15T06:16:26;12.97;;;8.30;;
13943;SDS011;7044;53.286;8.534;2023-02-15T06:18:53;15.03;;;9.37;;
13943;SDS011;7044;53.286;8.534;2023-02-15T06:21:20;14.40;;;9.00;;
13943;SDS011;7044;53.286;8.534;2023-02-15T06:23:47;15.73;;;9.13;;
13943;SDS011;7044;53.286;8.534;2023-02-15T06:26:13;15.77;;;9.03;;
13943;SDS011;7044;53.286;8.534;2023-02-15T06:28:40;20.27;;;9.97;;
13943;SDS011;7044;53.286;8.534;2023-02-15T06:31:07;24.23;;;9.47;;
13943;SDS011;7044;53.286;8.534;2023-02-15T06:33:35;16.90;;;8.77;;
13943;SDS011;7044;53.286;8.534;2023-02-15T06:36:03;14.03;;;9.03;;
13943;SDS011;7044;53.286;8.534;2023-02-15T06:38:30;18.20;;;8.57;;
13943;SDS011;7044;53.286;8.534;2023-02-15T06:40:57;14.67;;;8.87;;
13943;SDS011;7044;53.286;8.534;2023-02-15T06:43:24;13.40;;;8.27;;
13943;SDS011;7044;53.286;8.534;2023-02-15T06:45:50;18.47;;;9.53;;
13943;SDS011;7044;53.286;8.534;2023-02-15T06:48:17;20.70;;;8.70;;
13943;SDS011;7044;53.286;8.534;2023-02-15T06:50:45;13.37;;;8.13;;
13943;SDS011;7044;53.286;8.534;2023-02-15T06:53:12;13.87;;;8.47;;
13943;SDS011;7044;53.286;8.534;2023-02-15T06:55:39;16.60;;;8.60;;
13943;SDS011;7044;53.286;8.534;2023-02-15T06:58:06;15.00;;;8.47;;
13943;SDS011;7044;53.286;8.534;2023-02-15T07:00:32;14.17;;;8.37;;
13943;SDS011;7044;53.286;8.534;2023-02-15T07:02:59;18.03;;;8.33;;
13943;SDS011;7044;53.286;8.534;2023-02-15T07:05:27;17.40;;;9.03;;
13943;SDS011;7044;53.286;8.534;2023-02-15T07:07:57;14.00;;;8.30;;
13943;SDS011;7044;53.286;8.534;2023-02-15T07:10:24;16.03;;;8.77;;
13943;SDS011;7044;53.286;8.534;2023-02-15T07:12:51;14.57;;;8.57;;
13943;SDS011;7044;53.286;8.534;2023-02-15T07:15:18;13.47;;;7.83;;
13943;SDS011;7044;53.286;8.534;2023-02-15T07:17:46;12.50;;;8.37;;
13943;SDS011;7044;53.286;8.534;2023-02-15T07:20:15;13.50;;;8.13;;
13943;SDS011;7044;53.286;8.534;2023-02-15T07:22:43;16.73;;;9.53;;
13943;SDS011;7044;53.286;8.534;2023-02-15T07:25:12;14.73;;;8.07;;
13943;SDS011;7044;53.286;8.534;2023-02-15T07:27:39;17.17;;;8.43;;
13943;SDS011;7044;53.286;8.534;2023-02-15T07:30:07;10.43;;;7.93;;
13943;SDS011;7044;53.286;8.534;2023-02-15T07:32:35;13.00;;;8.27;;
13943;SDS011;7044;53.286;8.534;2023-02-15T07:35:22;13.87;;;8.40;;
13943;SDS011;7044;53.286;8.534;2023-02-15T07:37:49;12.77;;;8.00;;
13943;SDS011;7044;53.286;8.534;2023-02-15T07:40:17;12.87;;;8.43;;
13943;SDS011;7044;53.286;8.534;2023-02-15T07:42:44;17.77;;;9.63;;
13943;SDS011;7044;53.286;8.534;2023-02-15T07:45:10;54.70;;;27.27;;
13943;SDS011;7044;53.286;8.534;2023-02-15T07:47:37;47.43;;;25.47;;
13943;SDS011;7044;53.286;8.534;2023-02-15T07:50:04;34.47;;;18.93;;
13943;SDS011;7044;53.286;8.534;2023-02-15T07:52:32;30.83;;;19.00;;
13943;SDS011;7044;53.286;8.534;2023-02-15T07:54:58;26.67;;;15.23;;
13943;SDS011;7044;53.286;8.534;2023-02-15T07:57:27;18.63;;;12.23;;
13943;SDS011;7044;53.286;8.534;2023-02-15T07:59:54;18.57;;;11.00;;
13943;SDS011;7044;53.286;8.534;2023-02-15T08:02:21;19.17;;;12.10;;
13943;SDS011;7044;53.286;8.534;2023-02-15T08:04:48;18.30;;;9.63;;
13943;SDS011;7044;53.286;8.534;2023-02-15T08:07:14;12.67;;;9.20;;
13943;SDS011;7044;53.286;8.534;2023-02-15T08:09:41;13.13;;;8.70;;
13943;SDS011;7044;53.286;8.534;2023-02-15T08:12:08;17.23;;;10.47;;
13943;SDS011;7044;53.286;8.534;2023-02-15T08:14:36;17.87;;;10.97;;
13943;SDS011;7044;53.286;8.534;2023-02-15T08:17:03;14.77;;;9.43;;
13943;SDS011;7044;53.286;8.534;2023-02-15T08:19:30;16.23;;;9.87;;
13943;SDS011;7044;53.286;8.534;2023-02-15T08:22:00;17.47;;;10.30;;
13943;SDS011;7044;53.286;8.534;2023-02-15T08:24:29;16.63;;;9.47;;
13943;SDS011;7044;53.286;8.534;2023-02-15T08:26:57;15.23;;;9.17;;
13943;SDS011;7044;53.286;8.534;2023-02-15T08:29:24;15.93;;;9.90;;
13943;SDS011;7044;53.286;8.534;2023-02-15T08:31:55;16.97;;;9.63;;
13943;SDS011;7044;53.286;8.534;2023-02-15T08:34:23;14.50;;;9.33;;
13943;SDS011;7044;53.286;8.534;2023-02-15T08:36:50;14.37;;;9.33;;
13943;SDS011;7044;53.286;8.534;2023-02-15T08:39:17;17.50;;;9.23;;
13943;SDS011;7044;53.286;8.534;2023-02-15T08:41:44;14.53;;;9.73;;
13943;SDS011;7044;53.286;8.534;2023-02-15T08:44:13;19.37;;;10.83;;
13943;SDS011;7044;53.286;8.534;2023-02-15T08:46:42;14.90;;;9.20;;
13943;SDS011;7044;53.286;8.534;2023-02-15T08:49:12;13.63;;;9.60;;
13943;SDS011;7044;53.286;8.534;2023-02-15T08:51:41;14.37;;;8.63;;
13943;SDS011;7044;53.286;8.534;2023-02-15T08:54:09;17.07;;;9.37;;
13943;SDS011;7044;53.286;8.534;2023-02-15T08:56:39;13.53;;;9.53;;
13943;SDS011;7044;53.286;8.534;2023-02-15T08:59:11;16.23;;;9.33;;
13943;SDS011;7044;53.286;8.534;2023-02-15T09:01:39;15.97;;;9.77;;
13943;SDS011;7044;53.286;8.534;2023-02-15T09:04:06;18.67;;;10.63;;
13943;SDS011;7044;53.286;8.534;2023-02-15T09:06:36;15.37;;;10.27;;
13943;SDS011;7044;53.286;8.534;2023-02-15T09:09:03;20.17;;;11.10;;
13943;SDS011;7044;53.286;8.534;2023-02-15T09:11:32;15.23;;;9.63;;
13943;SDS011;7044;53.286;8.534;2023-02-15T09:14:02;18.13;;;11.10;;
13943;SDS011;7044;53.286;8.534;2023-02-15T09:16:31;18.20;;;9.87;;
13943;SDS011;7044;53.286;8.534;2023-02-15T09:19:00;16.87;;;10.43;;
13943;SDS011;7044;53.286;8.534;2023-02-15T09:21:29;17.10;;;11.37;;
13943;SDS011;7044;53.286;8.534;2023-02-15T09:23:58;18.47;;;11.00;;
13943;SDS011;7044;53.286;8.534;2023-02-15T09:26:26;18.20;;;12.30;;
13943;SDS011;7044;53.286;8.534;2023-02-15T09:28:55;18.63;;;11.77;;
13943;SDS011;7044;53.286;8.534;2023-02-15T09:31:24;17.73;;;11.90;;
13943;SDS011;7044;53.286;8.534;2023-02-15T09:33:52;19.63;;;12.13;;
13943;SDS011;7044;53.286;8.534;2023-02-15T09:36:20;16.73;;;11.17;;
13943;SDS011;7044;53.286;8.534;2023-02-15T09:38:52;16.67;;;11.47;;
13943;SDS011;7044;53.286;8.534;2023-02-15T09:41:30;20.37;;;11.60;;
13943;SDS011;7044;53.286;8.534;2023-02-15T09:44:21;19.03;;;12.13;;
13943;SDS011;7044;53.286;8.534;2023-02-15T09:47:12;20.83;;;12.77;;
13943;SDS011;7044;53.286;8.534;2023-02-15T09:49:53;21.77;;;12.63;;
13943;SDS011;7044;53.286;8.534;2023-02-15T09:52:30;23.33;;;13.90;;
13943;SDS011;7044;53.286;8.534;2023-02-15T09:55:11;17.30;;;12.27;;
13943;SDS011;7044;53.286;8.534;2023-02-15T09:57:46;21.73;;;15.10;;
13943;SDS011;7044;53.286;8.534;2023-02-15T10:00:21;22.10;;;14.53;;
13943;SDS011;7044;53.286;8.534;2023-02-15T10:03:04;20.83;;;14.47;;
13943;SDS011;7044;53.286;8.534;2023-02-15T10:05:42;27.33;;;18.13;;
13943;SDS011;7044;53.286;8.534;2023-02-15T10:11:20;26.33;;;17.40;;
13943;SDS011;7044;53.286;8.534;2023-02-15T10:14:19;25.20;;;16.90;;
13943;SDS011;7044;53.286;8.534;2023-02-15T10:17:04;23.97;;;17.17;;
13943;SDS011;7044;53.286;8.534;2023-02-15T10:19:40;26.43;;;18.03;;
13943;SDS011;7044;53.286;8.534;2023-02-15T10:22:19;27.10;;;17.33;;
13943;SDS011;7044;53.286;8.534;2023-02-15T10:24:56;28.27;;;18.57;;
13943;SDS011;7044;53.286;8.534;2023-02-15T10:27:38;29.77;;;18.00;;
13943;SDS011;7044;53.286;8.534;2023-02-15T10:32:45;30.93;;;18.07;;
13943;SDS011;7044;53.286;8.534;2023-02-15T10:35:22;26.37;;;17.33;;
13943;SDS011;7044;53.286;8.534;2023-02-15T10:38:04;29.43;;;18.37;;
13943;SDS011;7044;53.286;8.534;2023-02-15T10:40:40;28.73;;;17.83;;
13943;SDS011;7044;53.286;8.534;2023-02-15T10:43:24;31.80;;;18.57;;
13943;SDS011;7044;53.286;8.534;2023-02-15T10:46:07;24.90;;;18.10;;
13943;SDS011;7044;53.286;8.534;2023-02-15T10:48:50;37.17;;;22.37;;
13943;SDS011;7044;53.286;8.534;2023-02-15T10:51:45;33.17;;;20.23;;
13943;SDS011;7044;53.286;8.534;2023-02-15T10:54:24;30.53;;;20.30;;
13943;SDS011;7044;53.286;8.534;2023-02-15T10:57:03;37.53;;;20.60;;
13943;SDS011;7044;53.286;8.534;2023-02-15T10:59:41;34.47;;;19.73;;
13943;SDS011;7044;53.286;8.534;2023-02-15T11:05:35;25.93;;;18.27;;
13943;SDS011;7044;53.286;8.534;2023-02-15T11:08:09;31.17;;;20.13;;
13943;SDS011;7044;53.286;8.534;2023-02-15T11:10:39;26.93;;;18.27;;
13943;SDS011;7044;53.286;8.534;2023-02-15T11:13:10;34.37;;;18.80;;
13943;SDS011;7044;53.286;8.534;2023-02-15T11:15:41;30.67;;;19.10;;
13943;SDS011;7044;53.286;8.534;2023-02-15T11:18:14;35.47;;;19.80;;
13943;SDS011;7044;53.286;8.534;2023-02-15T11:20:46;27.73;;;18.53;;
13943;SDS011;7044;53.286;8.534;2023-02-15T11:23:19;41.23;;;20.20;;
13943;SDS011;7044;53.286;8.534;2023-02-15T11:25:52;32.73;;;19.97;;
13943;SDS011;7044;53.286;8.534;2023-02-15T11:28:24;33.73;;;20.10;;
13943;SDS011;7044;53.286;8.534;2023-02-15T11:30:57;25.37;;;18.07;;
13943;SDS011;7044;53.286;8.534;2023-02-15T11:33:33;31.77;;;18.50;;
13943;SDS011;7044;53.286;8.534;2023-02-15T11:36:04;31.17;;;18.03;;
13943;SDS011;7044;53.286;8.534;2023-02-15T11:38:35;31.47;;;19.47;;
13943;SDS011;7044;53.286;8.534;2023-02-15T11:41:05;35.63;;;19.03;;
13943;SDS011;7044;53.286;8.534;2023-02-15T11:43:36;32.93;;;19.87;;
13943;SDS011;7044;53.286;8.534;2023-02-15T11:46:08;30.23;;;18.60;;
13943;SDS011;7044;53.286;8.534;2023-02-15T11:48:41;35.00;;;19.67;;
13943;SDS011;7044;53.286;8.534;2023-02-15T11:51:08;32.00;;;20.27;;
13943;SDS011;7044;53.286;8.534;2023-02-15T11:53:41;34.17;;;19.80;;
13943;SDS011;7044;53.286;8.534;2023-02-15T11:56:12;29.53;;;19.07;;
13943;SDS011;7044;53.286;8.534;2023-02-15T11:58:41;33.10;;;19.33;;
13943;SDS011;7044;53.286;8.534;2023-02-15T12:01:13;30.43;;;18.27;;
13943;SDS011;7044;53.286;8.534;2023-02-15T12:03:47;34.10;;;19.50;;
13943;SDS011;7044;53.286;8.534;2023-02-15T12:06:17;39.40;;;20.20;;
13943;SDS011;7044;53.286;8.534;2023-02-15T12:08:51;30.47;;;19.20;;
13943;SDS011;7044;53.286;8.534;2023-02-15T12:11:25;31.67;;;19.93;;
13943;SDS011;7044;53.286;8.534;2023-02-15T12:13:58;28.33;;;19.90;;
13943;SDS011;7044;53.286;8.534;2023-02-15T12:16:26;28.53;;;19.17;;
13943;SDS011;7044;53.286;8.534;2023-02-15T12:18:56;29.83;;;19.33;;
13943;SDS011;7044;53.286;8.534;2023-02-15T12:21:27;29.73;;;19.37;;
13943;SDS011;7044;53.286;8.534;2023-02-15T12:23:57;31.17;;;19.80;;
13943;SDS011;7044;53.286;8.534;2023-02-15T12:26:29;32.90;;;19.80;;
13943;SDS011;7044;53.286;8.534;2023-02-15T12:29:00;29.10;;;19.47;;
13943;SDS011;7044;53.286;8.534;2023-02-15T12:31:33;34.77;;;21.10;;
13943;SDS011;7044;53.286;8.534;2023-02-15T12:34:09;30.93;;;19.17;;
13943;SDS011;7044;53.286;8.534;2023-02-15T12:36:40;30.87;;;20.40;;
13943;SDS011;7044;53.286;8.534;2023-02-15T12:39:21;32.80;;;21.10;;
13943;SDS011;7044;53.286;8.534;2023-02-15T12:41:58;29.27;;;19.67;;
13943;SDS011;7044;53.286;8.534;2023-02-15T12:44:29;28.83;;;20.27;;
13943;SDS011;7044;53.286;8.534;2023-02-15T12:46:58;27.83;;;18.23;;
13943;SDS011;7044;53.286;8.534;2023-02-15T12:49:27;28.73;;;19.00;;
13943;SDS011;7044;53.286;8.534;2023-02-15T12:51:56;30.70;;;17.90;;
13943;SDS011;7044;53.286;8.534;2023-02-15T12:54:35;32.17;;;19.87;;
13943;SDS011;7044;53.286;8.534;2023-02-15T12:57:17;33.13;;;20.00;;
13943;SDS011;7044;53.286;8.534;2023-02-15T12:59:50;27.23;;;19.17;;
13943;SDS011;7044;53.286;8.534;2023-02-15T13:02:23;34.23;;;20.73;;
13943;SDS011;7044;53.286;8.534;2023-02-15T13:04:54;28.20;;;19.73;;
13943;SDS011;7044;53.286;8.534;2023-02-15T13:07:23;30.77;;;20.70;;
13943;SDS011;7044;53.286;8.534;2023-02-15T13:09:51;34.50;;;20.20;;
13943;SDS011;7044;53.286;8.534;2023-02-15T13:12:20;33.10;;;20.43;;
13943;SDS011;7044;53.286;8.534;2023-02-15T13:14:51;29.33;;;19.13;;
13943;SDS011;7044;53.286;8.534;2023-02-15T13:17:21;33.17;;;21.43;;
13943;SDS011;7044;53.286;8.534;2023-02-15T13:19:56;31.77;;;21.07;;
13943;SDS011;7044;53.286;8.534;2023-02-15T13:22:27;38.03;;;21.47;;
13943;SDS011;7044;53.286;8.534;2023-02-15T13:25:01;33.47;;;20.37;;
13943;SDS011;7044;53.286;8.534;2023-02-15T13:27:36;31.63;;;22.30;;
13943;SDS011;7044;53.286;8.534;2023-02-15T13:30:08;33.53;;;21.47;;
13943;SDS011;7044;53.286;8.534;2023-02-15T13:32:44;33.23;;;21.57;;
13943;SDS011;7044;53.286;8.534;2023-02-15T13:35:16;38.93;;;21.87;;
13943;SDS011;7044;53.286;8.534;2023-02-15T13:38:00;30.70;;;21.53;;
13943;SDS011;7044;53.286;8.534;2023-02-15T13:41:07;38.23;;;22.67;;
13943;SDS011;7044;53.286;8.534;2023-02-15T13:43:40;33.65;;;23.08;;
13943;SDS011;7044;53.286;8.534;2023-02-15T13:46:21;39.80;;;23.40;;
13943;SDS011;7044;53.286;8.534;2023-02-15T13:49:02;33.45;;;22.83;;
13943;SDS011;7044;53.286;8.534;2023-02-15T13:51:41;38.63;;;22.87;;
13943;SDS011;7044;53.286;8.534;2023-02-15T13:54:21;38.03;;;23.10;;
13943;SDS011;7044;53.286;8.534;2023-02-15T13:57:16;35.90;;;23.23;;
13943;SDS011;7044;53.286;8.534;2023-02-15T14:00:13;38.97;;;23.60;;
13943;SDS011;7044;53.286;8.534;2023-02-15T14:02:57;40.70;;;24.80;;
13943;SDS011;7044;53.286;8.534;2023-02-15T14:05:46;37.38;;;24.88;;
13943;SDS011;7044;53.286;8.534;2023-02-15T14:08:24;39.83;;;24.90;;
13943;SDS011;7044;53.286;8.534;2023-02-15T14:11:05;39.53;;;24.80;;
13943;SDS011;7044;53.286;8.534;2023-02-15T14:13:49;36.00;;;22.85;;
13943;SDS011;7044;53.286;8.534;2023-02-15T14:16:30;35.10;;;23.25;;
13943;SDS011;7044;53.286;8.534;2023-02-15T14:19:09;37.87;;;22.17;;
13943;SDS011;7044;53.286;8.534;2023-02-15T14:21:43;40.38;;;24.27;;
13943;SDS011;7044;53.286;8.534;2023-02-15T14:24:20;32.40;;;22.10;;
13943;SDS011;7044;53.286;8.534;2023-02-15T14:26:56;35.22;;;22.70;;
13943;SDS011;7044;53.286;8.534;2023-02-15T14:29:37;38.72;;;23.75;;
13943;SDS011;7044;53.286;8.534;2023-02-15T14:32:15;36.95;;;23.05;;
13943;SDS011;7044;53.286;8.534;2023-02-15T14:34:47;36.63;;;23.23;;
13943;SDS011;7044;53.286;8.534;2023-02-15T14:37:19;39.25;;;23.05;;
13943;SDS011;7044;53.286;8.534;2023-02-15T14:39:55;40.15;;;23.95;;
13943;SDS011;7044;53.286;8.534;2023-02-15T14:42:45;37.47;;;23.08;;
13943;SDS011;7044;53.286;8.534;2023-02-15T14:45:19;35.20;;;21.88;;
13943;SDS011;7044;53.286;8.534;2023-02-15T14:47:55;35.22;;;22.33;;
13943;SDS011;7044;53.286;8.534;2023-02-15T14:50:39;34.90;;;22.73;;
13943;SDS011;7044;53.286;8.534;2023-02-15T14:56:21;36.55;;;22.58;;
13943;SDS011;7044;53.286;8.534;2023-02-15T14:58:55;39.08;;;23.50;;
13943;SDS011;7044;53.286;8.534;2023-02-15T15:01:39;36.78;;;22.10;;
13943;SDS011;7044;53.286;8.534;2023-02-15T15:04:08;41.93;;;22.70;;
13943;SDS011;7044;53.286;8.534;2023-02-15T15:06:38;38.47;;;21.95;;
13943;SDS011;7044;53.286;8.534;2023-02-15T15:09:11;36.65;;;21.65;;
13943;SDS011;7044;53.286;8.534;2023-02-15T15:11:47;39.90;;;22.97;;
13943;SDS011;7044;53.286;8.534;2023-02-15T15:17:05;35.90;;;21.15;;
13943;SDS011;7044;53.286;8.534;2023-02-15T15:22:38;37.53;;;22.05;;
13943;SDS011;7044;53.286;8.534;2023-02-15T15:25:10;36.37;;;21.97;;
13943;SDS011;7044;53.286;8.534;2023-02-15T15:28:00;34.95;;;21.63;;
13943;SDS011;7044;53.286;8.534;2023-02-15T15:30:47;36.13;;;21.05;;
13943;SDS011;7044;53.286;8.534;2023-02-15T15:33:27;38.47;;;21.45;;
13943;SDS011;7044;53.286;8.534;2023-02-15T15:39:43;33.83;;;21.23;;
13943;SDS011;7044;53.286;8.534;2023-02-15T15:42:35;37.85;;;20.38;;